الصفحة الرئيسية
METAR-TAF:

METAR-TAF

مطار :

نيامي, النيجر

مطار ديوري حماني

دائرة عرض: 13-29N, خط طول: 002-10E, ارتفاع: 223 متر

مراقبة الطقس الحالي

تاريخ ووقت الإصدار 1ساعة و 14 دقيقة قبل الساعة 10:00UTC
ريح 15 عقدة من الشرق/الجنوب الشرقي
درجة الحرارة 26°درجة مئوية
الرطوبة 9%
ضغط 1016 hPa
الرؤية: 1800 متر
هبوب الغبار

METAR: DRRN 171000Z 11015KT 1800 BLDU NSC 26/M09 Q1016 NOSIG

زمن: 12:14 (11:14 UTC)

توقعات

تاريخ ووقت الإصدار 6ساعات و 14 دقيقة قبل الساعة 05:00UTC
التوقعات صالحة من17 الساعة 06 UTC إلى 18 الساعة 12 UTC
ريح 10 عقدة من الشرق
الرؤية: 1000 متر
غبار
أصبح
من 17 الساعة 10 UTC إلى 17 الساعة 12 UTC
الرؤية: 2500 متر
أصبح
من 17 الساعة 18 UTC إلى 17 الساعة 20 UTC
الرؤية: 4000 متر

TAF: DRRN 170500Z 1706/1812 08010KT 1000 DU NSC BECMG 1710/1712 2500 BECMG 1718/1720 4000

أرصاد الطقس والتوقعات من أكثر من 4000 مطار (تقارير الطقس للمطار METAR والتنبؤ بالطقس بالمطارTAF).

المحطات المتاحة هي النقط الصفراء والحمراء على الخريطة.

حرك المؤشر فوق النقطة لمعرفة اسم المحطة.

ثم انقر لمعرفة أرصاد وتوقعات الطقس.

لتغيير الخارطة: اضغط على الأزرار الخضراء مع رمز الصليب الأسود للتكبير. على الزر الأخضر مع شرطة للتصغير، أو على الأسهم الخضراء للخرائط المجاورة.


METAR-TAF: